Nearby METAR Reports

 

KTAN - Taunton, Massachusetts, USA
Distance from station: W 5mi, 8km
Updated: 02/18/2020 6:52am
Overcast
Overcast
 Wind from calm
Wind: Calm
Temperature: 25°F , -4°C
Dew Point: 21°F , -6°C
Humidity: 86%
Barometer: 30.44 inHg , 1030.8 hPa
Clouds: Overcast
Visibility: 10 miles , 16 km
Cloud details: Mostly cloudy 9500 ft
Overcast 11000 ft
2020/02/18 11:52 KTAN 181152Z AUTO 00000KT 10SM BKN095 OVC110 M04/M06 A3044 RMK AO2 SLP309 I6000 T10391056 11039 21067 55001
KPYM - Plymouth, Massachusetts, USA
Distance from station: ENE 10mi, 16km
Updated: 02/18/2020 6:52am
Overcast
Overcast
 Wind from E
Wind: E 7 mph , 11 km/h
Temperature: 34°F , 1°C
Wind Chill: 28°F , -2°C
Dew Point: 25°F , -4°C
Humidity: 70%
Barometer: 30.44 inHg , 1030.8 hPa
Clouds: Overcast
Visibility: 10 miles , 16 km
Cloud details: Overcast 11000 ft
2020/02/18 11:52 KPYM 181152Z AUTO 09006KT 10SM OVC110 01/M04 A3044 RMK AO2 SLP311 T00111039 10011 21033 55003
 
KEWB - New Bedford, Massachusetts, USA
Distance from station: S 14mi, 23km
Updated: 02/18/2020 6:53am
Overcast
Overcast
 Wind from NE
Wind: NE 6 mph , 9 km/h
Temperature: 30°F , -1°C
Wind Chill: 24°F , -4°C
Dew Point: 27°F , -3°C
Humidity: 86%
Barometer: 30.43 inHg , 1030.5 hPa
Clouds: Overcast
Visibility: 10 miles , 16 km
Cloud details: Overcast 10000 ft
2020/02/18 11:53 KEWB 181153Z 05005KT 10SM OVC100 M01/M03 A3043 RMK AO2 SLP304 T10061028 11006 21056 56005 $
KGHG - Marshfield, Massachusetts, USA
Distance from station: NE 20mi, 31km
Updated: 02/18/2020 6:55am
Mostly cloudy
Mostly cloudy
 Wind from E
Wind: E 12 mph , 19 km/h, Gust: 20 mph , 31 km/h
Temperature: 37°F , 3°C
Wind Chill: 29°F , -2°C
Dew Point: 25°F , -4°C
Humidity: 60%
Barometer: 30.46 inHg , 1031.5 hPa
Clouds: Mostly cloudy
Visibility: 10 miles , 16 km
Cloud details: Few Clouds 3300 ft
Mostly cloudy 10000 ft
2020/02/18 11:55 KGHG 181155Z AUTO 10010G17KT 070V130 10SM FEW033 BKN100 03/M04 A3046 RMK AO2
 
KOWD - Norwood, Massachusetts, USA
Distance from station: NNW 24mi, 39km
Updated: 02/18/2020 6:53am
Overcast
Overcast
 Wind from calm
Wind: Calm
Temperature: 28°F , -2°C
Dew Point: 19°F , -7°C
Humidity: 69%
Barometer: 30.46 inHg , 1031.5 hPa
Clouds: Overcast
Visibility: 10 miles , 16 km
Cloud details: Overcast 10000 ft
2020/02/18 11:53 KOWD 181153Z 00000KT 10SM OVC100 M02/M07 A3046 RMK AO2 SLP314 T10221067 11022 21039 53000
KMQE - East Milton, Massachusetts, USA
Distance from station: NNW 25mi, 40km
Updated: 02/18/2020 6:51am

 Wind from ESE
Wind: ESE 13 mph , 20 km/h
Temperature: 30°F , -1°C
Wind Chill: 20°F , -7°C
Dew Point: 21°F , -6°C
Humidity: 69%
Barometer: 30.40 inHg , 1029.5 hPa
2020/02/18 11:51 KMQE 181151Z AUTO 11011KT M01/M06 A3040 RMK AO1 SLP314 T10111056 11011 21028 55002
 
KFMH - Falmouth/Otis Ab, Massachusetts, USA
Distance from station: SE 27mi, 44km
Updated: 02/18/2020 6:45am
Mostly cloudy
Mostly cloudy
 Wind from E
Wind: E 7 mph , 11 km/h
Temperature: 32°F , 0°C
Wind Chill: 25°F , -4°C
Dew Point: 25°F , -4°C
Humidity: 75%
Barometer: 30.43 inHg , 1030.5 hPa
Clouds: Mostly cloudy
Visibility: 10 miles , 16 km
Cloud details: Mostly cloudy 10000 ft
2020/02/18 11:45 KFMH 181145Z 09006KT 10SM BKN100 00/M04 A3043
KPVD - Providence/Green, Rhode Island, USA
Distance from station: WSW 29mi, 47km
Updated: 02/18/2020 6:51am
Mostly cloudy
Mostly cloudy
 Wind from NE
Wind: NE 7 mph , 11 km/h
Temperature: 30°F , -1°C
Wind Chill: 23°F , -5°C
Dew Point: 21°F , -6°C
Humidity: 69%
Barometer: 30.43 inHg , 1030.5 hPa
Clouds: Mostly cloudy
Visibility: 10 miles , 16 km
Cloud details: Mostly cloudy 8000 ft
Mostly cloudy 9500 ft
2020/02/18 11:51 KPVD 181151Z 05006KT 10SM BKN080 BKN095 M01/M06 A3043 RMK AO2 SLP304 T10061056 11006 21022 58007
 
KSFZ - Pawtucket, Rhode Island, USA
Distance from station: W 30mi, 48km
Updated: 02/18/2020 6:56am
Mostly cloudy
Mostly cloudy
 Wind from NE
Wind: NE 6 mph , 9 km/h
Temperature: 28°F , -2°C
Wind Chill: 21°F , -6°C
Dew Point: 19°F , -7°C
Humidity: 69%
Barometer: 30.41 inHg , 1029.8 hPa
Clouds: Mostly cloudy
Visibility: 10 miles , 16 km
Cloud details: Mostly cloudy 8000 ft
2020/02/18 11:56 KSFZ 181156Z AUTO 05005KT 10SM BKN080 M02/M07 A3041 RMK AO2 SLP246 T10221067 11017 21033 58007 FZRANO
KUUU - Newport, Rhode Island, USA
Distance from station: SW 31mi, 50km
Updated: 02/18/2020 6:53am
Overcast
Overcast
 Wind from E
Wind: E 12 mph , 19 km/h
Temperature: 34°F , 1°C
Wind Chill: 25°F , -4°C
Dew Point: 25°F , -4°C
Humidity: 70%
Barometer: 30.40 inHg , 1029.5 hPa
Clouds: Overcast
Visibility: 10 miles , 16 km
Cloud details: Overcast 9000 ft
2020/02/18 11:53 KUUU 181153Z AUTO 09010KT 10SM OVC090 01/M04 A3040 RMK AO2 SLP295 T00111039 10011 20000 58008 $
 
KOQU - N. Kingston/Quon, Rhode Island, USA
Distance from station: SW 32mi, 52km
Updated: 02/16/2020 5:50pm
NOT Current
Mostly cloudy
Mostly cloudy
 Wind from SW
Wind: SW 10 mph , 17 km/h
Temperature: 39°F , 4°C
Wind Chill: 32°F , 0°C
Dew Point: 27°F , -3°C
Humidity: 61%
Barometer: 30.07 inHg , 1018.3 hPa
Clouds: Mostly cloudy
Visibility: 10 miles , 16 km
Cloud details: Mostly cloudy 10000 ft
Mostly cloudy 25000 ft
2020/02/16 22:50 KOQU 162250Z 23009KT 10SM BKN100 BKN250 04/M03 A3007 RMK LAST
KBOS - Boston, Massachusetts, USA
Distance from station: N 33mi, 54km
Updated: 02/18/2020 6:54am
Overcast
Overcast
 Wind from ESE
Wind: ESE 14 mph , 22 km/h
Temperature: 37°F , 3°C
Wind Chill: 28°F , -2°C
Dew Point: 23°F , -5°C
Humidity: 56%
Barometer: 30.46 inHg , 1031.5 hPa
Clouds: Overcast
Visibility: 10 miles , 16 km
Cloud details: Few Clouds 3100 ft
Mostly cloudy 11000 ft
Overcast 16000 ft
2020/02/18 11:54 KBOS 181154Z 11012KT 10SM FEW031 BKN110 OVC160 03/M05 A3046 RMK AO2 SLP315 T00331050 10033 21006 55000
 
KHYA - Hyannis, Massachusetts, USA
Distance from station: ESE 37mi, 59km
Updated: 02/18/2020 6:56am
Mostly cloudy
Mostly cloudy
 Wind from E
Wind: E 3 mph , 6 km/h
Temperature: 36°F , 2°C
Dew Point: 27°F , -3°C
Humidity: 70%
Barometer: 30.43 inHg , 1030.5 hPa
Clouds: Mostly cloudy
Visibility: 10 miles , 16 km
Cloud details: Mostly cloudy 11000 ft
2020/02/18 11:56 KHYA 181156Z 09003KT 10SM BKN110 02/M03 A3043 RMK AO2 SLP305 T00171033 10017 21033 55003
KMVY - Marthas Vineyard, Massachusetts, USA
Distance from station: SSE 37mi, 60km
Updated: 02/18/2020 6:53am
Overcast
Overcast
 Wind from E
Wind: E 10 mph , 17 km/h
Temperature: 37°F , 3°C
Wind Chill: 30°F , -1°C
Dew Point: 28°F , -2°C
Humidity: 70%
Barometer: 30.42 inHg , 1030.1 hPa
Clouds: Overcast
Visibility: 10 miles , 16 km
Cloud details: Overcast 10000 ft
2020/02/18 11:53 KMVY 181153Z 10009KT 10SM OVC100 03/M02 A3042 RMK AO2 SLP302 T00281022 10028 21006 56006
 
KPVC - Provincetown, Massachusetts, USA
Distance from station: ENE 38mi, 61km
Updated: 02/18/2020 6:56am
Clear
Clear
 Wind from ESE
Wind: ESE 8 mph , 13 km/h
Temperature: 36°F , 2°C
Wind Chill: 30°F , -1°C
Dew Point: 25°F , -4°C
Humidity: 65%
Barometer: 30.47 inHg , 1031.8 hPa
Clouds: Clear
Visibility: 10 miles , 16 km
2020/02/18 11:56 KPVC 181156Z AUTO 11007KT 10SM CLR 02/M04 A3047 RMK AO2 SLP316 T00171039 10017 20006 55002 FZRANO
KBED - Bedford, Massachusetts, USA
Distance from station: NNW 44mi, 72km
Updated: 02/18/2020 6:51am
Overcast
Overcast
 Wind from calm
Wind: Calm
Temperature: 27°F , -3°C
Dew Point: 18°F , -8°C
Humidity: 69%
Barometer: 30.45 inHg , 1031.2 hPa
Clouds: Overcast
Visibility: 10 miles , 16 km
Cloud details: Mostly cloudy 3100 ft
Overcast 11000 ft
2020/02/18 11:51 KBED 181151Z 00000KT 10SM BKN031 OVC110 M03/M08 A3045 RMK AO2 SLP327 T10281078 11028 21044 55002
 
KBVY - Beverly, Massachusetts, USA
Distance from station: 0 48mi, 77km
Updated: 02/18/2020 6:53am
Overcast
Overcast
 Wind from calm
Wind: Calm
Temperature: 30°F , -1°C
Dew Point: 19°F , -7°C
Humidity: 64%
Barometer: 30.46 inHg , 1031.5 hPa
Clouds: Overcast
Visibility: 10 miles , 16 km
Cloud details: Overcast 12000 ft
2020/02/18 11:53 KBVY 181153Z 00000KT 10SM OVC120 M01/M07 A3046 RMK AO2 SLP313 T10061072 11006 21044 55000
KCQX - Chatham, Massachusetts, USA
Distance from station: ESE 49mi, 80km
Updated: 02/18/2020 6:52am
Mostly cloudy
Mostly cloudy
 Wind from ESE
Wind: ESE 9 mph , 15 km/h, Gust: 20 mph , 31 km/h
Temperature: 37°F , 3°C
Wind Chill: 30°F , -1°C
Dew Point: 27°F , -3°C
Humidity: 65%
Barometer: 30.45 inHg , 1031.2 hPa
Clouds: Mostly cloudy
Visibility: 10 miles , 16 km
Cloud details: Mostly cloudy 3000 ft
2020/02/18 11:52 KCQX 181152Z AUTO 11008G17KT 10SM BKN030 03/M03 A3045 RMK AO2 SLP314 T00281028 10028 21028 58005